Time;durP1;ratioP1;P1;durP2;ratioP2;P2;SDS_P1;SDS_P2;PMS_P1;PMS_P2;Temp;Humidity;BMP_temperature;BMP_pressure;BME280_temperature;BME280_humidity;BME280_pressure;Samples;Min_cycle;Max_cycle;Signal;HPM_P1;HPM_P2
2021/03/19 00:00:12;;;;;;;32.30;17.53;;;1.60;99.90;;;;;;5100960;28;20730;-81
2021/03/19 00:02:39;;;;;;;33.20;17.13;;;1.60;99.90;;;;;;5105532;28;20233;-81
2021/03/19 00:05:10;;;;;;;35.40;17.47;;;1.50;99.90;;;;;;5088419;28;20258;-83
2021/03/19 00:07:42;;;;;;;34.40;16.83;;;1.60;99.90;;;;;;5100606;28;20201;-81
2021/03/19 00:10:10;;;;;;;32.63;17.50;;;1.50;99.90;;;;;;5108388;28;20197;-83
2021/03/19 00:12:38;;;;;;;31.40;15.93;;;1.40;99.90;;;;;;5081062;28;20205;-80
2021/03/19 00:15:06;;;;;;;27.60;15.30;;;1.20;99.90;;;;;;5094775;28;20688;-82
2021/03/19 00:17:34;;;;;;;33.10;17.50;;;1.20;99.90;;;;;;5093462;28;20228;-83
2021/03/19 00:20:03;;;;;;;34.90;17.03;;;1.20;99.90;;;;;;5094148;28;20723;-87
2021/03/19 00:22:30;;;;;;;33.80;17.37;;;1.30;99.90;;;;;;5101145;28;20201;-81
2021/03/19 00:25:04;;;;;;;35.00;17.37;;;1.20;99.90;;;;;;5113083;28;20237;-85
2021/03/19 00:27:33;;;;;;;34.10;16.90;;;1.10;99.90;;;;;;5087798;28;20254;-80
2021/03/19 00:30:00;;;;;;;33.97;16.47;;;0.90;99.90;;;;;;5095341;28;20213;-83
2021/03/19 00:32:28;;;;;;;35.00;16.63;;;0.90;99.90;;;;;;5102237;28;20216;-84
2021/03/19 00:34:55;;;;;;;33.00;17.37;;;0.80;99.90;;;;;;5112994;28;20296;-82
2021/03/19 00:37:21;;;;;;;33.57;17.73;;;0.80;99.90;;;;;;5100951;28;20198;-80
2021/03/19 00:39:51;;;;;;;32.80;16.80;;;0.70;99.90;;;;;;5098024;28;20320;-79
2021/03/19 00:42:21;;;;;;;35.47;17.27;;;0.70;99.90;;;;;;5098909;28;20490;-80
2021/03/19 00:44:47;;;;;;;33.23;16.87;;;0.70;99.90;;;;;;5099306;28;20590;-82
2021/03/19 00:47:14;;;;;;;35.70;18.10;;;0.60;99.90;;;;;;5105323;28;20216;-85
2021/03/19 00:49:46;;;;;;;34.80;16.90;;;0.60;99.90;;;;;;5105244;28;20225;-85
2021/03/19 00:52:15;;;;;;;36.30;17.53;;;0.60;99.90;;;;;;5103179;28;20272;-80
2021/03/19 00:54:42;;;;;;;33.63;16.93;;;0.50;99.90;;;;;;5101918;28;20265;-81
2021/03/19 00:57:10;;;;;;;34.37;16.87;;;0.40;99.90;;;;;;5099674;28;20233;-80
2021/03/19 00:59:40;;;;;;;36.70;17.47;;;0.40;99.90;;;;;;5096822;28;20263;-80
2021/03/19 01:02:10;;;;;;;35.13;16.90;;;0.20;99.90;;;;;;5093562;28;20476;-82
2021/03/19 01:04:38;;;;;;;32.70;16.13;;;0.20;99.90;;;;;;5098970;28;20249;-80
2021/03/19 01:07:05;;;;;;;33.63;17.33;;;0.10;99.90;;;;;;5106718;28;20685;-84
2021/03/19 01:09:34;;;;;;;33.50;17.47;;;0.10;99.90;;;;;;5105760;28;20212;-83
2021/03/19 01:12:01;;;;;;;35.43;17.87;;;0.10;99.90;;;;;;5096334;28;20890;-86
2021/03/19 01:14:27;;;;;;;36.10;16.93;;;0.10;99.90;;;;;;5101415;28;20605;-83
2021/03/19 01:16:54;;;;;;;35.37;18.00;;;0.10;99.90;;;;;;5099626;28;20876;-82
2021/03/19 01:19:21;;;;;;;36.53;18.00;;;0.10;99.90;;;;;;5100673;28;20221;-86
2021/03/19 01:21:48;;;;;;;34.60;17.63;;;0.10;99.90;;;;;;5110049;28;20770;-83
2021/03/19 01:24:15;;;;;;;33.90;16.17;;;0.00;99.90;;;;;;5102747;28;20208;-82
2021/03/19 01:26:42;;;;;;;32.70;15.47;;;0.00;99.90;;;;;;5108879;28;20221;-81
2021/03/19 01:29:09;;;;;;;32.87;16.03;;;0.20;99.90;;;;;;5103617;28;20220;-83
2021/03/19 01:31:36;;;;;;;36.30;17.30;;;0.30;99.90;;;;;;5100114;28;20264;-83
2021/03/19 01:34:09;;;;;;;30.23;15.47;;;0.10;99.90;;;;;;5090477;28;20194;-79
2021/03/19 01:36:35;;;;;;;32.80;16.17;;;0.10;99.90;;;;;;5102114;28;20230;-79
2021/03/19 01:39:04;;;;;;;34.93;16.87;;;0.10;99.90;;;;;;5097781;28;20241;-86
2021/03/19 01:41:33;;;;;;;30.90;16.10;;;0.30;99.90;;;;;;5103943;28;20256;-80
2021/03/19 01:44:03;;;;;;;29.20;15.13;;;0.20;99.90;;;;;;5103712;28;20650;-84
2021/03/19 01:47:07;;;;;;;34.63;16.17;;;0.30;99.90;;;;;;5105074;28;20279;-86
2021/03/19 01:50:16;;;;;;;30.97;15.37;;;0.30;99.90;;;;;;5104062;28;20181;-82
2021/03/19 01:53:22;;;;;;;30.00;14.10;;;0.50;99.90;;;;;;5084047;28;20216;-82
2021/03/19 01:56:26;;;;;;;29.73;14.13;;;0.60;99.90;;;;;;5099438;28;20234;-84
2021/03/19 01:59:33;;;;;;;29.60;13.33;;;0.80;99.90;;;;;;5105767;28;20569;-80
2021/03/19 02:02:40;;;;;;;27.83;12.93;;;0.70;99.90;;;;;;5097403;28;20258;-81
2021/03/19 02:05:49;;;;;;;27.23;13.10;;;0.80;99.90;;;;;;5100313;28;20564;-86
2021/03/19 02:08:54;;;;;;;30.70;13.37;;;0.90;99.90;;;;;;5121270;28;20213;-82
2021/03/19 02:11:58;;;;;;;26.93;12.67;;;0.90;99.90;;;;;;5108020;28;20224;-84
2021/03/19 02:15:04;;;;;;;27.10;13.33;;;0.90;99.90;;;;;;5094359;28;20203;-89
2021/03/19 02:18:07;;;;;;;23.83;11.70;;;0.90;99.90;;;;;;5086346;28;20202;-80
2021/03/19 02:21:28;;;;;;;23.77;11.73;;;0.80;99.90;;;;;;5096430;28;20248;-82
2021/03/19 02:24:34;;;;;;;22.37;10.87;;;0.80;99.90;;;;;;5022907;28;20680;-82
2021/03/19 02:27:38;;;;;;;24.27;11.97;;;0.80;99.90;;;;;;5022330;28;20451;-81
2021/03/19 02:30:37;;;;;;;23.33;12.27;;;0.80;99.90;;;;;;5095799;28;20206;-79
2021/03/19 02:33:05;;;;;;;25.40;12.13;;;0.80;99.90;;;;;;5058357;28;20194;-81
2021/03/19 02:35:32;;;;;;;22.20;11.80;;;0.80;99.90;;;;;;5097640;28;20243;-84
2021/03/19 02:38:03;;;;;;;22.73;10.83;;;0.80;99.90;;;;;;5098130;28;20293;-82
2021/03/19 02:40:29;;;;;;;25.37;12.63;;;0.90;99.90;;;;;;5092424;28;20312;-83
2021/03/19 02:42:58;;;;;;;21.40;10.73;;;0.90;99.90;;;;;;5086647;28;20303;-81
2021/03/19 02:45:25;;;;;;;23.23;12.10;;;0.90;99.90;;;;;;5082433;28;20244;-81
2021/03/19 02:47:53;;;;;;;23.70;11.40;;;0.90;99.90;;;;;;5081500;28;20206;-84
2021/03/19 02:50:22;;;;;;;21.23;10.03;;;0.90;99.90;;;;;;5085155;28;20305;-81
2021/03/19 02:52:51;;;;;;;21.43;11.10;;;1.00;99.90;;;;;;5090272;28;20206;-81
2021/03/19 02:55:19;;;;;;;24.10;11.23;;;1.00;99.90;;;;;;5090698;28;20661;-82
2021/03/19 02:57:46;;;;;;;22.63;11.53;;;1.00;99.90;;;;;;5092572;28;20209;-86
2021/03/19 03:00:18;;;;;;;22.33;11.33;;;1.00;99.90;;;;;;5090050;28;20221;-80
2021/03/19 03:02:45;;;;;;;23.10;11.63;;;1.00;99.90;;;;;;5097472;28;20210;-80
2021/03/19 03:05:16;;;;;;;22.93;11.17;;;1.00;99.90;;;;;;5091647;28;20336;-86
2021/03/19 03:07:45;;;;;;;21.50;10.60;;;1.00;99.90;;;;;;5088672;28;20208;-80
2021/03/19 03:10:20;;;;;;;25.40;12.07;;;1.00;99.90;;;;;;5092741;28;20255;-83
2021/03/19 03:12:47;;;;;;;20.57;10.47;;;1.10;99.90;;;;;;5099677;28;20213;-80
2021/03/19 03:15:25;;;;;;;23.53;10.83;;;1.00;99.90;;;;;;5086744;28;20325;-81
2021/03/19 03:17:56;;;;;;;21.43;11.13;;;0.80;99.90;;;;;;5095877;28;20225;-83
2021/03/19 03:20:33;;;;;;;19.73;9.93;;;0.80;99.90;;;;;;5101099;28;20232;-80
2021/03/19 03:23:03;;;;;;;22.57;10.47;;;0.80;99.90;;;;;;5099764;28;20661;-80
2021/03/19 03:25:30;;;;;;;20.10;10.27;;;0.60;99.90;;;;;;5097119;28;20190;-80
2021/03/19 03:27:57;;;;;;;21.77;10.13;;;0.70;99.90;;;;;;5099370;28;20650;-84
2021/03/19 03:30:28;;;;;;;20.80;10.10;;;0.70;99.90;;;;;;5100379;28;20213;-83
2021/03/19 03:32:56;;;;;;;20.77;10.03;;;0.70;99.90;;;;;;5097200;28;20212;-81
2021/03/19 03:35:26;;;;;;;20.47;10.27;;;0.70;99.90;;;;;;5088887;28;20603;-88
2021/03/19 03:37:54;;;;;;;22.07;10.40;;;0.70;99.90;;;;;;5096281;28;20722;-84
2021/03/19 03:40:27;;;;;;;22.67;10.87;;;0.70;99.90;;;;;;5089496;28;20255;-86
2021/03/19 03:42:54;;;;;;;21.20;10.43;;;0.80;99.90;;;;;;5095982;28;20429;-81
2021/03/19 03:45:21;;;;;;;22.13;10.57;;;0.90;99.90;;;;;;5096140;28;20304;-81
2021/03/19 03:47:52;;;;;;;24.07;10.47;;;0.80;99.90;;;;;;5086579;28;20292;-81
2021/03/19 03:50:24;;;;;;;20.20;10.50;;;0.90;99.90;;;;;;5094766;28;20222;-81
2021/03/19 03:52:51;;;;;;;19.83;10.40;;;0.90;99.90;;;;;;5091068;28;20305;-81
2021/03/19 03:55:21;;;;;;;19.17;10.30;;;0.70;99.90;;;;;;5090318;28;20225;-82
2021/03/19 03:57:50;;;;;;;20.27;10.07;;;0.70;99.90;;;;;;5096462;28;20229;-82
2021/03/19 04:00:22;;;;;;;22.87;10.80;;;0.60;99.90;;;;;;5098538;28;20253;-82
2021/03/19 04:02:52;;;;;;;19.50;10.43;;;0.50;99.90;;;;;;5097477;28;20256;-85
2021/03/19 04:05:24;;;;;;;21.07;10.10;;;0.50;99.90;;;;;;5099313;28;20229;-82
2021/03/19 04:07:52;;;;;;;18.20;9.10;;;0.40;99.90;;;;;;5098827;28;20274;-85
2021/03/19 04:10:22;;;;;;;19.97;9.73;;;0.40;99.90;;;;;;5099395;28;20298;-82
2021/03/19 04:12:53;;;;;;;20.60;9.23;;;0.30;99.90;;;;;;5099395;28;20189;-83
2021/03/19 04:15:23;;;;;;;17.93;8.87;;;0.30;99.90;;;;;;5100028;28;20207;-84
2021/03/19 04:17:55;;;;;;;20.20;10.53;;;0.40;99.90;;;;;;5102257;28;20233;-87
2021/03/19 04:20:29;;;;;;;18.70;9.90;;;0.30;99.90;;;;;;5087708;28;20233;-83
2021/03/19 04:22:58;;;;;;;20.57;9.43;;;0.40;99.90;;;;;;5082253;28;20201;-85
2021/03/19 04:25:28;;;;;;;20.93;10.53;;;0.40;99.90;;;;;;5098624;28;20212;-82
2021/03/19 04:28:19;;;;;;;19.23;9.90;;;0.50;99.90;;;;;;5096729;28;20229;-83
2021/03/19 04:30:52;;;;;;;21.00;10.50;;;0.40;99.90;;;;;;5102763;28;20251;-82
2021/03/19 04:33:23;;;;;;;21.27;9.83;;;0.40;99.90;;;;;;5092078;28;20224;-82
2021/03/19 04:36:03;;;;;;;20.33;9.33;;;0.20;99.90;;;;;;5097155;28;20229;-82
2021/03/19 04:38:30;;;;;;;19.43;9.03;;;0.20;99.90;;;;;;5092612;28;20442;-82
2021/03/19 04:40:59;;;;;;;16.90;8.17;;;0.30;99.90;;;;;;5098317;28;20221;-82
2021/03/19 04:43:28;;;;;;;19.33;9.00;;;0.10;99.90;;;;;;5099030;28;20569;-82
2021/03/19 04:45:54;;;;;;;19.67;9.23;;;-0.10;99.90;;;;;;5097286;28;20292;-84
2021/03/19 04:48:22;;;;;;;18.27;8.97;;;0.10;99.90;;;;;;5111107;28;20237;-82
2021/03/19 04:50:48;;;;;;;19.27;9.43;;;0.10;99.90;;;;;;5099555;28;20228;-82
2021/03/19 04:53:16;;;;;;;22.37;8.43;;;0.10;99.90;;;;;;5100973;28;20202;-82
2021/03/19 04:55:43;;;;;;;18.73;8.87;;;0.10;99.90;;;;;;5105613;28;20270;-87
2021/03/19 04:58:15;;;;;;;16.47;8.50;;;0.00;99.90;;;;;;5098982;28;20201;-85
2021/03/19 05:00:45;;;;;;;17.47;8.00;;;-0.10;99.90;;;;;;5104628;28;20289;-82
2021/03/19 05:03:11;;;;;;;18.00;8.30;;;-0.20;99.90;;;;;;5096911;28;20189;-81
2021/03/19 05:05:41;;;;;;;19.53;9.47;;;-0.20;99.90;;;;;;5092425;28;20274;-83
2021/03/19 05:08:10;;;;;;;15.53;8.43;;;-0.20;99.90;;;;;;5092858;28;20195;-83
2021/03/19 05:10:38;;;;;;;17.27;7.87;;;-0.40;99.90;;;;;;5093266;28;20229;-84
2021/03/19 05:13:09;;;;;;;15.73;8.77;;;-0.40;99.90;;;;;;5101661;28;20269;-83
2021/03/19 05:15:37;;;;;;;19.87;8.33;;;-0.40;99.90;;;;;;5099005;28;20202;-85
2021/03/19 05:18:06;;;;;;;17.97;7.93;;;-0.50;99.90;;;;;;5099619;28;20202;-83
2021/03/19 05:20:35;;;;;;;15.23;7.67;;;-0.50;99.90;;;;;;5099219;28;20249;-86
2021/03/19 05:23:03;;;;;;;18.73;8.10;;;-0.50;99.90;;;;;;5092298;28;20660;-83
2021/03/19 05:25:34;;;;;;;15.20;8.17;;;-0.50;99.90;;;;;;5099939;28;20212;-83
2021/03/19 05:28:00;;;;;;;17.93;8.33;;;-0.50;99.90;;;;;;5093222;28;20209;-88
2021/03/19 05:30:28;;;;;;;17.20;8.17;;;-0.60;99.90;;;;;;5098644;28;20235;-84
2021/03/19 05:32:54;;;;;;;14.53;7.50;;;-0.60;99.90;;;;;;5103998;28;20266;-83
2021/03/19 05:35:24;;;;;;;17.73;8.30;;;-0.70;99.90;;;;;;5100461;28;20283;-84
2021/03/19 05:37:51;;;;;;;11.93;6.83;;;-0.80;99.90;;;;;;5094021;28;20212;-79
2021/03/19 05:40:36;;;;;;;18.13;8.17;;;-0.80;99.90;;;;;;5094720;28;20701;-82
2021/03/19 05:43:25;;;;;;;16.83;8.10;;;-0.70;99.90;;;;;;5106954;28;20291;-80
2021/03/19 05:45:53;;;;;;;16.80;8.40;;;-0.60;99.90;;;;;;5106724;28;20295;-80
2021/03/19 05:48:20;;;;;;;15.90;8.60;;;-0.60;99.90;;;;;;5091410;28;20204;-83
2021/03/19 05:50:47;;;;;;;15.97;8.77;;;-0.50;99.90;;;;;;5102901;28;20709;-79
2021/03/19 05:53:16;;;;;;;17.33;8.37;;;-0.30;99.90;;;;;;5094795;28;20269;-80
2021/03/19 05:55:43;;;;;;;17.93;8.57;;;0.30;99.90;;;;;;5095304;28;20232;-79
2021/03/19 05:58:20;;;;;;;17.50;8.33;;;0.30;99.90;;;;;;5096256;28;20983;-81
2021/03/19 06:00:46;;;;;;;16.70;8.30;;;0.50;99.90;;;;;;5093684;28;20225;-78
2021/03/19 06:03:19;;;;;;;15.63;7.73;;;0.50;99.90;;;;;;5109710;28;20237;-79
2021/03/19 06:06:07;;;;;;;16.63;8.90;;;0.60;99.90;;;;;;5082173;28;20706;-81
2021/03/19 06:08:35;;;;;;;14.77;7.70;;;1.30;99.90;;;;;;5095215;28;20288;-80
2021/03/19 06:11:12;;;;;;;15.00;7.63;;;1.50;99.90;;;;;;5092048;28;20224;-83
2021/03/19 06:13:53;;;;;;;15.03;8.30;;;1.50;99.90;;;;;;5090260;28;20201;-80
2021/03/19 06:16:30;;;;;;;14.60;7.73;;;1.20;99.90;;;;;;5096776;28;20224;-80
2021/03/19 06:18:59;;;;;;;14.23;7.87;;;1.40;99.90;;;;;;5099695;28;20218;-80
2021/03/19 06:21:29;;;;;;;15.03;8.07;;;1.20;99.90;;;;;;5104318;28;20233;-80
2021/03/19 06:24:20;;;;;;;18.60;8.07;;;1.20;99.90;;;;;;5095478;28;20194;-80
2021/03/19 06:26:50;;;;;;;14.20;7.70;;;1.10;99.90;;;;;;5108575;28;20227;-82
2021/03/19 06:29:31;;;;;;;15.07;7.50;;;1.00;99.90;;;;;;5084596;28;20608;-80
2021/03/19 06:32:14;;;;;;;14.80;7.13;;;0.90;99.90;;;;;;5096054;28;20221;-80
2021/03/19 06:35:01;;;;;;;14.67;7.30;;;1.00;99.90;;;;;;5097697;28;20219;-81
2021/03/19 06:37:39;;;;;;;17.60;7.77;;;1.00;99.90;;;;;;5094642;28;20197;-80
2021/03/19 06:40:26;;;;;;;13.80;7.70;;;1.10;99.90;;;;;;5094969;28;20233;-80
2021/03/19 06:42:52;;;;;;;15.93;7.40;;;1.30;99.90;;;;;;5094745;28;20277;-79
2021/03/19 06:45:22;;;;;;;14.83;7.50;;;1.40;99.90;;;;;;5096406;28;20284;-81
2021/03/19 06:47:52;;;;;;;15.17;7.70;;;1.40;99.90;;;;;;5095919;28;20610;-82
2021/03/19 06:50:41;;;;;;;12.30;6.80;;;1.50;99.90;;;;;;5095469;28;20221;-79
2021/03/19 06:53:21;;;;;;;14.43;7.37;;;1.80;99.90;;;;;;5095484;28;20205;-80
2021/03/19 06:55:53;;;;;;;13.40;6.90;;;1.80;99.90;;;;;;5097453;28;20201;-81
2021/03/19 06:58:38;;;;;;;14.03;7.03;;;1.90;99.90;;;;;;5095910;28;20402;-80
2021/03/19 07:01:29;;;;;;;12.33;6.70;;;1.60;99.90;;;;;;5096676;28;20225;-80
2021/03/19 07:04:30;;;;;;;14.70;7.17;;;1.70;99.90;;;;;;5086191;28;20202;-80
2021/03/19 07:07:30;;;;;;;12.33;6.67;;;1.80;99.90;;;;;;5087771;28;20202;-80
2021/03/19 07:10:16;;;;;;;13.93;7.33;;;1.90;99.90;;;;;;5095631;28;20197;-80
2021/03/19 07:12:50;;;;;;;15.63;8.17;;;1.90;99.90;;;;;;5089169;28;20201;-81
2021/03/19 07:15:35;;;;;;;17.67;7.70;;;2.20;99.90;;;;;;5098474;28;20571;-80
2021/03/19 07:18:09;;;;;;;14.67;8.13;;;2.70;99.90;;;;;;5098351;28;20190;-83
2021/03/19 07:21:18;;;;;;;13.60;7.73;;;2.90;99.90;;;;;;5093510;28;20529;-79
2021/03/19 07:24:06;;;;;;;13.30;7.77;;;2.70;99.90;;;;;;5098958;28;20255;-81
2021/03/19 07:26:36;;;;;;;13.03;7.10;;;2.60;99.90;;;;;;5118466;28;20201;-80
2021/03/19 07:29:28;;;;;;;15.70;7.80;;;2.60;99.90;;;;;;5097743;28;20675;-79
2021/03/19 07:32:18;;;;;;;13.10;7.17;;;2.90;99.90;;;;;;5096170;28;20273;-79
2021/03/19 07:35:17;;;;;;;12.77;7.60;;;2.90;99.90;;;;;;5095414;28;20288;-83
2021/03/19 07:38:26;;;;;;;12.17;7.17;;;3.30;99.90;;;;;;5094633;28;20202;-80
2021/03/19 07:41:13;;;;;;;12.70;7.33;;;3.80;99.90;;;;;;5095370;28;20224;-80
2021/03/19 07:44:14;;;;;;;13.00;7.20;;;3.80;99.90;;;;;;5096214;28;20236;-80
2021/03/19 07:46:53;;;;;;;12.23;6.67;;;3.20;99.90;;;;;;5088872;28;20233;-80
2021/03/19 07:49:37;;;;;;;12.00;6.80;;;3.10;99.90;;;;;;5099182;28;20281;-81
2021/03/19 07:52:24;;;;;;;14.87;8.47;;;2.90;99.90;;;;;;5106652;28;20673;-79
2021/03/19 07:55:02;;;;;;;12.13;6.27;;;3.70;99.90;;;;;;5102871;28;20753;-81
2021/03/19 07:57:38;;;;;;;10.07;6.53;;;5.50;99.90;;;;;;5091145;28;20652;-81
2021/03/19 08:00:18;;;;;;;9.87;5.80;;;5.20;99.90;;;;;;5091278;28;20312;-81
2021/03/19 08:03:01;;;;;;;9.23;5.77;;;6.40;99.90;;;;;;5106489;28;20236;-81
2021/03/19 08:05:36;;;;;;;9.83;6.07;;;5.50;99.90;;;;;;5097130;28;20585;-80
2021/03/19 08:08:16;;;;;;;12.60;6.43;;;5.00;99.90;;;;;;5099092;28;20200;-79
2021/03/19 08:11:04;;;;;;;12.83;6.40;;;4.70;99.90;;;;;;5089758;28;20260;-81
2021/03/19 08:13:42;;;;;;;11.93;5.87;;;5.40;99.90;;;;;;5095354;28;20201;-79
2021/03/19 08:16:17;;;;;;;12.57;6.37;;;4.90;99.90;;;;;;5098083;28;20269;-82
2021/03/19 08:18:54;;;;;;;9.63;5.47;;;6.60;99.90;;;;;;5095058;28;20238;-80
2021/03/19 08:21:33;;;;;;;9.70;5.70;;;7.20;99.90;;;;;;5089593;28;20228;-79
2021/03/19 08:24:18;;;;;;;10.97;6.03;;;6.10;99.90;;;;;;5102037;28;20654;-81
2021/03/19 08:26:59;;;;;;;12.37;6.13;;;5.20;99.90;;;;;;5099796;28;20198;-80
2021/03/19 08:29:38;;;;;;;11.80;6.07;;;5.50;99.90;;;;;;5105763;28;20555;-82
2021/03/19 08:32:19;;;;;;;10.40;5.50;;;5.10;99.90;;;;;;5098258;28;20323;-80
2021/03/19 08:34:58;;;;;;;11.83;6.13;;;5.00;99.90;;;;;;5105487;28;20228;-82
2021/03/19 08:37:36;;;;;;;9.13;5.20;;;4.70;99.90;;;;;;5100415;28;20284;-79
2021/03/19 08:40:07;;;;;;;8.63;5.40;;;4.60;99.90;;;;;;5099124;28;20684;-80
2021/03/19 08:42:39;;;;;;;9.80;5.40;;;4.70;99.90;;;;;;5110024;28;20672;-81
2021/03/19 08:45:15;;;;;;;8.13;4.27;;;4.90;99.90;;;;;;5114848;28;20201;-81
2021/03/19 08:47:49;;;;;;;6.43;4.60;;;4.90;99.90;;;;;;5095160;28;20232;-81
2021/03/19 08:50:33;;;;;;;6.70;3.73;;;5.40;99.90;;;;;;5092113;28;20217;-82
2021/03/19 08:53:14;;;;;;;7.20;4.30;;;5.10;99.90;;;;;;5105360;28;20213;-80
2021/03/19 08:55:42;;;;;;;8.20;4.60;;;5.30;99.90;;;;;;5109708;28;20256;-80
2021/03/19 08:58:47;;;;;;;7.00;3.67;;;5.50;99.90;;;;;;5112127;28;20212;-80
2021/03/19 09:01:51;;;;;;;7.63;3.77;;;5.60;99.90;;;;;;5076582;28;20213;-83
2021/03/19 09:04:40;;;;;;;6.17;3.77;;;6.00;99.90;;;;;;5098501;28;20280;-83
2021/03/19 09:07:29;;;;;;;8.10;4.40;;;6.20;99.90;;;;;;5095558;28;20334;-81
2021/03/19 09:10:00;;;;;;;6.10;3.70;;;5.80;99.90;;;;;;5107206;28;20212;-81
2021/03/19 09:12:28;;;;;;;4.83;3.00;;;5.60;99.90;;;;;;5097878;28;20240;-79
2021/03/19 09:15:21;;;;;;;6.73;3.27;;;5.60;99.90;;;;;;5097340;28;20327;-81
2021/03/19 09:18:03;;;;;;;3.60;2.60;;;5.90;99.90;;;;;;5076191;28;20297;-79
2021/03/19 09:21:03;;;;;;;4.87;2.40;;;5.80;99.90;;;;;;5100457;28;20225;-82
2021/03/19 09:23:46;;;;;;;3.80;2.30;;;5.80;99.90;;;;;;5104082;28;20198;-80
2021/03/19 09:26:42;;;;;;;5.53;2.97;;;5.40;99.90;;;;;;5101344;28;20201;-80
2021/03/19 09:29:31;;;;;;;3.17;2.33;;;5.40;99.90;;;;;;5098604;28;20276;-80
2021/03/19 09:31:59;;;;;;;4.80;2.73;;;5.50;99.90;;;;;;5111414;28;20676;-81
2021/03/19 09:35:04;;;;;;;5.03;2.70;;;5.70;99.90;;;;;;5116039;28;20598;-79
2021/03/19 09:37:50;;;;;;;5.10;2.80;;;5.90;99.90;;;;;;5061979;28;20251;-82
2021/03/19 09:40:48;;;;;;;4.53;2.77;;;7.00;99.90;;;;;;5097848;28;20229;-81
2021/03/19 09:43:39;;;;;;;4.37;2.77;;;6.70;99.90;;;;;;5098268;28;20210;-78
2021/03/19 09:46:22;;;;;;;3.70;2.20;;;6.80;99.90;;;;;;5089582;28;20244;-80
2021/03/19 09:49:23;;;;;;;4.77;2.33;;;7.40;99.90;;;;;;5085597;28;20645;-80
2021/03/19 09:51:49;;;;;;;2.73;2.13;;;7.40;99.90;;;;;;5098031;28;20271;-83
2021/03/19 09:54:25;;;;;;;3.73;2.23;;;7.60;99.90;;;;;;5098644;28;20210;-80
2021/03/19 09:57:00;;;;;;;4.03;1.90;;;7.10;99.90;;;;;;5078238;28;20225;-80
2021/03/19 09:59:29;;;;;;;3.53;1.83;;;7.20;99.90;;;;;;5093444;28;20696;-81
2021/03/19 10:01:57;;;;;;;3.47;2.03;;;7.60;99.90;;;;;;5097950;28;20256;-79
2021/03/19 10:04:36;;;;;;;3.63;2.40;;;7.40;99.90;;;;;;5091814;28;20202;-79
2021/03/19 10:07:17;;;;;;;4.47;2.67;;;6.90;99.90;;;;;;5095939;28;20212;-80
2021/03/19 10:09:47;;;;;;;6.23;3.20;;;7.00;99.90;;;;;;5099973;28;20182;-81
2021/03/19 10:12:39;;;;;;;5.80;2.93;;;6.40;99.90;;;;;;5098493;28;20222;-80
2021/03/19 10:15:13;;;;;;;4.83;2.90;;;6.40;99.90;;;;;;5081685;28;20290;-81
2021/03/19 10:17:42;;;;;;;4.50;2.97;;;6.60;99.90;;;;;;5098081;28;20732;-79
2021/03/19 10:20:21;;;;;;;4.90;2.60;;;6.70;99.90;;;;;;5098977;28;20737;-80
2021/03/19 10:22:49;;;;;;;4.90;3.00;;;6.60;99.90;;;;;;5086450;28;20404;-79
2021/03/19 10:25:29;;;;;;;3.47;2.70;;;6.40;99.90;;;;;;5099471;28;20676;-80
2021/03/19 10:27:57;;;;;;;5.17;3.10;;;6.30;99.90;;;;;;5087067;28;20653;-81
2021/03/19 10:30:30;;;;;;;4.73;2.97;;;6.40;99.90;;;;;;5089785;28;20622;-82
2021/03/19 10:33:03;;;;;;;4.83;2.80;;;6.70;99.90;;;;;;5090558;28;20687;-80
2021/03/19 10:35:34;;;;;;;3.90;2.73;;;6.90;99.90;;;;;;5092971;28;20263;-81
2021/03/19 10:38:09;;;;;;;4.63;3.20;;;6.40;99.90;;;;;;5101474;28;20204;-81
2021/03/19 10:40:44;;;;;;;9.33;3.17;;;7.00;99.90;;;;;;5099328;28;20286;-79
2021/03/19 10:43:20;;;;;;;6.47;3.27;;;6.50;99.90;;;;;;5095751;28;20272;-79
2021/03/19 10:45:56;;;;;;;4.23;3.43;;;6.80;99.90;;;;;;5091179;28;20225;-79
2021/03/19 10:48:31;;;;;;;5.07;3.30;;;6.80;99.90;;;;;;5101280;28;20197;-81
2021/03/19 10:51:13;;;;;;;6.03;3.30;;;7.00;99.90;;;;;;5097801;28;20209;-80
2021/03/19 10:53:53;;;;;;;3.50;2.70;;;6.70;99.90;;;;;;5092877;28;20232;-79
2021/03/19 10:56:20;;;;;;;4.07;2.90;;;6.30;99.90;;;;;;5095826;28;20218;-79
2021/03/19 10:58:51;;;;;;;4.70;3.07;;;6.20;99.90;;;;;;5096756;28;20248;-78
2021/03/19 11:01:34;;;;;;;7.20;3.60;;;6.80;99.90;;;;;;5096844;28;20225;-78
2021/03/19 11:04:03;;;;;;;8.53;3.90;;;6.80;99.90;;;;;;5095649;28;20647;-79
2021/03/19 11:06:43;;;;;;;6.37;3.83;;;6.80;99.90;;;;;;5084957;28;20237;-79
2021/03/19 11:09:16;;;;;;;6.40;3.53;;;7.30;99.90;;;;;;5080012;28;20194;-80
2021/03/19 11:11:50;;;;;;;6.13;3.90;;;7.20;99.90;;;;;;5089885;28;20226;-78
2021/03/19 11:14:21;;;;;;;7.03;3.73;;;7.30;99.90;;;;;;5086370;28;20266;-78
2021/03/19 11:16:52;;;;;;;5.30;3.37;;;7.20;99.90;;;;;;5076488;28;20217;-79
2021/03/19 11:19:26;;;;;;;5.13;3.30;;;6.60;99.90;;;;;;5076552;28;20246;-79
2021/03/19 11:22:05;;;;;;;6.37;3.47;;;6.40;99.90;;;;;;5090748;28;20217;-81
2021/03/19 11:24:40;;;;;;;5.57;3.53;;;6.10;99.90;;;;;;5090750;28;20209;-80
2021/03/19 11:27:20;;;;;;;8.07;4.00;;;6.00;99.90;;;;;;5095017;28;20197;-78
2021/03/19 11:29:51;;;;;;;8.20;4.00;;;5.90;99.90;;;;;;5098226;28;20213;-79
2021/03/19 11:32:33;;;;;;;7.07;3.90;;;5.60;99.90;;;;;;5097597;28;20226;-81
2021/03/19 11:35:21;;;;;;;6.57;3.97;;;5.90;99.90;;;;;;5093815;28;20677;-81
2021/03/19 11:37:50;;;;;;;7.93;4.53;;;5.90;99.90;;;;;;5096285;28;20722;-82
2021/03/19 11:40:39;;;;;;;6.73;4.20;;;5.90;99.90;;;;;;5094566;28;20613;-79
2021/03/19 11:43:09;;;;;;;8.80;4.47;;;5.80;99.90;;;;;;5110073;28;20250;-82
2021/03/19 11:45:40;;;;;;;7.60;4.67;;;5.60;99.90;;;;;;5093929;28;20206;-84
2021/03/19 11:48:25;;;;;;;7.07;4.23;;;5.70;99.90;;;;;;5098541;28;20653;-79
2021/03/19 11:50:56;;;;;;;8.43;4.77;;;5.70;99.90;;;;;;5099091;28;20704;-79
2021/03/19 11:53:27;;;;;;;8.43;4.37;;;6.00;99.90;;;;;;5096531;28;20209;-81
2021/03/19 11:55:56;;;;;;;9.57;4.53;;;6.00;99.90;;;;;;5078581;28;20234;-79
2021/03/19 11:58:26;;;;;;;5.63;3.50;;;6.00;99.90;;;;;;5098323;28;20606;-82
2021/03/19 12:00:54;;;;;;;5.73;3.00;;;5.60;99.90;;;;;;5098313;28;20773;-81
2021/03/19 12:03:31;;;;;;;8.03;3.70;;;5.50;99.90;;;;;;5096497;28;20228;-80
2021/03/19 12:05:58;;;;;;;7.57;3.30;;;5.50;99.90;;;;;;5096815;28;20334;-79
2021/03/19 12:08:27;;;;;;;4.37;3.33;;;5.70;99.90;;;;;;5097096;28;20586;-81
2021/03/19 12:10:56;;;;;;;6.60;3.70;;;6.80;99.90;;;;;;5096519;28;20294;-79
2021/03/19 12:13:27;;;;;;;8.90;3.40;;;6.10;99.90;;;;;;5096886;28;20188;-79
2021/03/19 12:15:55;;;;;;;7.93;4.17;;;5.90;99.90;;;;;;5096879;28;20193;-78
2021/03/19 12:18:25;;;;;;;3.80;3.00;;;5.80;99.90;;;;;;5099230;28;20243;-78
2021/03/19 12:20:55;;;;;;;5.50;2.93;;;5.80;99.90;;;;;;5114573;28;20220;-78
2021/03/19 12:23:22;;;;;;;4.87;3.17;;;6.00;99.90;;;;;;5117575;28;20200;-77
2021/03/19 12:25:50;;;;;;;3.30;2.70;;;6.10;99.90;;;;;;5116851;28;20200;-79
2021/03/19 12:28:22;;;;;;;3.90;2.83;;;6.20;99.90;;;;;;5093228;28;20285;-81
2021/03/19 12:30:50;;;;;;;7.13;3.30;;;6.00;99.90;;;;;;5095328;28;20221;-78
2021/03/19 12:33:19;;;;;;;4.33;2.73;;;5.90;99.90;;;;;;5095924;28;20202;-78
2021/03/19 12:35:46;;;;;;;7.17;3.40;;;5.80;99.90;;;;;;5095248;28;20205;-78
2021/03/19 12:38:19;;;;;;;4.33;3.23;;;5.70;99.90;;;;;;5098242;28;20673;-79
2021/03/19 12:40:45;;;;;;;5.73;3.40;;;5.50;99.90;;;;;;5096803;28;20253;-79
2021/03/19 12:43:13;;;;;;;5.53;3.57;;;5.50;99.90;;;;;;5107851;28;20237;-78
2021/03/19 12:45:41;;;;;;;7.10;3.53;;;5.60;99.90;;;;;;5100070;28;20209;-78
2021/03/19 12:48:10;;;;;;;5.87;3.37;;;5.80;99.90;;;;;;5089079;28;20576;-79
2021/03/19 12:50:39;;;;;;;5.87;3.57;;;5.90;99.90;;;;;;5090535;28;20321;-79
2021/03/19 12:53:13;;;;;;;7.03;3.60;;;6.00;99.90;;;;;;5101922;28;20238;-81
2021/03/19 12:55:40;;;;;;;9.17;3.77;;;6.60;99.90;;;;;;5092611;28;20257;-79
2021/03/19 12:58:10;;;;;;;4.37;3.30;;;7.10;99.90;;;;;;5089906;28;20275;-78
2021/03/19 13:00:44;;;;;;;5.60;3.30;;;6.50;99.90;;;;;;5089896;28;20230;-78
2021/03/19 13:03:13;;;;;;;5.90;3.27;;;6.00;99.90;;;;;;5089987;28;20209;-78
2021/03/19 13:05:43;;;;;;;4.70;3.37;;;6.00;99.90;;;;;;5079591;28;20221;-82
2021/03/19 13:08:13;;;;;;;5.17;3.20;;;5.90;99.90;;;;;;5092870;28;20221;-81
2021/03/19 13:10:40;;;;;;;6.13;3.20;;;5.90;99.90;;;;;;5082766;28;20237;-78
2021/03/19 13:13:07;;;;;;;4.73;3.27;;;5.80;99.90;;;;;;5090422;28;20622;-78
2021/03/19 13:15:37;;;;;;;4.57;3.27;;;5.90;99.90;;;;;;5080138;28;20202;-78
2021/03/19 13:18:07;;;;;;;4.80;3.20;;;5.90;99.90;;;;;;5101113;28;20204;-78
2021/03/19 13:20:37;;;;;;;7.37;3.40;;;6.00;99.90;;;;;;5096543;28;20259;-79
2021/03/19 13:23:06;;;;;;;5.90;3.47;;;5.80;99.90;;;;;;5094624;28;20237;-83
2021/03/19 13:25:35;;;;;;;4.50;3.27;;;6.00;99.90;;;;;;5084828;28;20298;-80
2021/03/19 13:28:03;;;;;;;3.83;3.33;;;6.60;99.90;;;;;;5079076;28;20234;-78
2021/03/19 13:30:32;;;;;;;3.83;3.30;;;6.40;99.90;;;;;;5086459;28;20214;-80